sensor_id;sensor_type;location;lat;lon;timestamp;P1;durP1;ratioP1;P2;durP2;ratioP2
36009;SDS011;22076;52.182;5.404;2022-10-22T00:01:42;10.95;;;5.75;;
36009;SDS011;22076;52.182;5.404;2022-10-22T00:04:11;12.43;;;5.82;;
36009;SDS011;22076;52.182;5.404;2022-10-22T00:06:37;9.32;;;4.85;;
36009;SDS011;22076;52.182;5.404;2022-10-22T00:09:04;14.43;;;6.10;;
36009;SDS011;22076;52.182;5.404;2022-10-22T00:11:31;14.40;;;5.90;;
36009;SDS011;22076;52.182;5.404;2022-10-22T00:13:57;15.82;;;6.13;;
36009;SDS011;22076;52.182;5.404;2022-10-22T00:16:25;10.68;;;5.72;;
36009;SDS011;22076;52.182;5.404;2022-10-22T00:18:51;12.50;;;5.55;;
36009;SDS011;22076;52.182;5.404;2022-10-22T00:21:20;13.85;;;6.05;;
36009;SDS011;22076;52.182;5.404;2022-10-22T00:23:46;10.25;;;5.20;;
36009;SDS011;22076;52.182;5.404;2022-10-22T00:26:13;13.20;;;7.32;;
36009;SDS011;22076;52.182;5.404;2022-10-22T00:28:40;10.98;;;6.63;;
36009;SDS011;22076;52.182;5.404;2022-10-22T00:31:06;10.02;;;5.57;;
36009;SDS011;22076;52.182;5.404;2022-10-22T00:33:33;13.65;;;7.20;;
36009;SDS011;22076;52.182;5.404;2022-10-22T00:35:59;10.82;;;6.35;;
36009;SDS011;22076;52.182;5.404;2022-10-22T00:38:28;10.85;;;5.20;;
36009;SDS011;22076;52.182;5.404;2022-10-22T00:40:54;13.88;;;6.82;;
36009;SDS011;22076;52.182;5.404;2022-10-22T00:43:21;8.93;;;4.63;;
36009;SDS011;22076;52.182;5.404;2022-10-22T00:45:47;14.27;;;8.13;;
36009;SDS011;22076;52.182;5.404;2022-10-22T00:48:15;10.43;;;6.10;;
36009;SDS011;22076;52.182;5.404;2022-10-22T00:50:45;13.27;;;7.70;;
36009;SDS011;22076;52.182;5.404;2022-10-22T00:53:13;13.70;;;7.10;;
36009;SDS011;22076;52.182;5.404;2022-10-22T00:55:43;12.73;;;6.50;;
36009;SDS011;22076;52.182;5.404;2022-10-22T00:58:12;14.02;;;7.32;;
36009;SDS011;22076;52.182;5.404;2022-10-22T01:00:39;11.00;;;5.18;;
36009;SDS011;22076;52.182;5.404;2022-10-22T01:03:06;8.98;;;4.18;;
36009;SDS011;22076;52.182;5.404;2022-10-22T01:05:36;20.25;;;5.85;;
36009;SDS011;22076;52.182;5.404;2022-10-22T01:08:05;15.73;;;7.35;;
36009;SDS011;22076;52.182;5.404;2022-10-22T01:10:39;13.15;;;6.85;;
36009;SDS011;22076;52.182;5.404;2022-10-22T01:13:16;15.40;;;7.68;;
36009;SDS011;22076;52.182;5.404;2022-10-22T01:15:50;12.77;;;6.38;;
36009;SDS011;22076;52.182;5.404;2022-10-22T01:18:21;8.20;;;5.43;;
36009;SDS011;22076;52.182;5.404;2022-10-22T01:20:55;13.60;;;8.02;;
36009;SDS011;22076;52.182;5.404;2022-10-22T01:23:34;13.38;;;7.38;;
36009;SDS011;22076;52.182;5.404;2022-10-22T01:26:15;13.77;;;6.45;;
36009;SDS011;22076;52.182;5.404;2022-10-22T01:28:51;11.13;;;5.90;;
36009;SDS011;22076;52.182;5.404;2022-10-22T01:31:21;10.38;;;5.65;;
36009;SDS011;22076;52.182;5.404;2022-10-22T01:33:49;11.80;;;6.43;;
36009;SDS011;22076;52.182;5.404;2022-10-22T01:36:17;10.77;;;6.55;;
36009;SDS011;22076;52.182;5.404;2022-10-22T01:38:44;10.77;;;6.32;;
36009;SDS011;22076;52.182;5.404;2022-10-22T01:41:11;16.25;;;7.50;;
36009;SDS011;22076;52.182;5.404;2022-10-22T01:43:39;8.40;;;4.93;;
36009;SDS011;22076;52.182;5.404;2022-10-22T01:46:08;14.93;;;6.60;;
36009;SDS011;22076;52.182;5.404;2022-10-22T01:48:39;11.52;;;5.65;;
36009;SDS011;22076;52.182;5.404;2022-10-22T01:53:57;10.70;;;5.57;;
36009;SDS011;22076;52.182;5.404;2022-10-22T01:56:30;9.60;;;5.22;;
36009;SDS011;22076;52.182;5.404;2022-10-22T01:59:09;12.63;;;5.85;;
36009;SDS011;22076;52.182;5.404;2022-10-22T02:01:44;14.02;;;5.78;;
36009;SDS011;22076;52.182;5.404;2022-10-22T02:04:15;11.27;;;6.03;;
36009;SDS011;22076;52.182;5.404;2022-10-22T02:06:44;10.73;;;6.60;;
36009;SDS011;22076;52.182;5.404;2022-10-22T02:09:13;13.52;;;6.15;;
36009;SDS011;22076;52.182;5.404;2022-10-22T02:11:40;17.58;;;7.13;;
36009;SDS011;22076;52.182;5.404;2022-10-22T02:14:07;11.80;;;6.57;;
36009;SDS011;22076;52.182;5.404;2022-10-22T02:16:35;15.73;;;6.43;;
36009;SDS011;22076;52.182;5.404;2022-10-22T02:19:06;13.95;;;6.30;;
36009;SDS011;22076;52.182;5.404;2022-10-22T02:21:37;17.48;;;7.20;;
36009;SDS011;22076;52.182;5.404;2022-10-22T02:24:03;10.77;;;6.20;;
36009;SDS011;22076;52.182;5.404;2022-10-22T02:26:31;11.52;;;5.32;;
36009;SDS011;22076;52.182;5.404;2022-10-22T02:29:02;14.77;;;7.55;;
36009;SDS011;22076;52.182;5.404;2022-10-22T02:31:33;13.15;;;6.63;;
36009;SDS011;22076;52.182;5.404;2022-10-22T02:34:02;8.88;;;5.38;;
36009;SDS011;22076;52.182;5.404;2022-10-22T02:36:34;16.60;;;7.65;;
36009;SDS011;22076;52.182;5.404;2022-10-22T02:39:02;16.73;;;7.30;;
36009;SDS011;22076;52.182;5.404;2022-10-22T02:41:28;13.75;;;7.50;;
36009;SDS011;22076;52.182;5.404;2022-10-22T02:43:55;12.48;;;7.20;;
36009;SDS011;22076;52.182;5.404;2022-10-22T02:46:22;16.00;;;5.68;;
36009;SDS011;22076;52.182;5.404;2022-10-22T02:48:49;14.95;;;5.82;;
36009;SDS011;22076;52.182;5.404;2022-10-22T02:51:17;15.98;;;7.10;;
36009;SDS011;22076;52.182;5.404;2022-10-22T02:53:44;15.13;;;5.13;;
36009;SDS011;22076;52.182;5.404;2022-10-22T02:56:11;12.30;;;5.35;;
36009;SDS011;22076;52.182;5.404;2022-10-22T02:58:38;14.13;;;6.45;;
36009;SDS011;22076;52.182;5.404;2022-10-22T03:01:04;16.08;;;7.18;;
36009;SDS011;22076;52.182;5.404;2022-10-22T03:03:34;10.20;;;6.75;;
36009;SDS011;22076;52.182;5.404;2022-10-22T03:06:01;14.05;;;5.75;;
36009;SDS011;22076;52.182;5.404;2022-10-22T03:08:29;17.48;;;6.82;;
36009;SDS011;22076;52.182;5.404;2022-10-22T03:10:55;13.32;;;5.38;;
36009;SDS011;22076;52.182;5.404;2022-10-22T03:13:22;9.32;;;5.15;;
36009;SDS011;22076;52.182;5.404;2022-10-22T03:15:49;15.20;;;6.60;;
36009;SDS011;22076;52.182;5.404;2022-10-22T03:18:16;18.73;;;6.45;;
36009;SDS011;22076;52.182;5.404;2022-10-22T03:20:45;9.40;;;5.18;;
36009;SDS011;22076;52.182;5.404;2022-10-22T03:23:12;15.35;;;7.05;;
36009;SDS011;22076;52.182;5.404;2022-10-22T03:25:41;19.63;;;6.90;;
36009;SDS011;22076;52.182;5.404;2022-10-22T03:28:09;10.98;;;4.85;;
36009;SDS011;22076;52.182;5.404;2022-10-22T03:30:36;17.38;;;6.03;;
36009;SDS011;22076;52.182;5.404;2022-10-22T03:33:05;15.88;;;5.57;;
36009;SDS011;22076;52.182;5.404;2022-10-22T03:35:32;10.73;;;5.38;;
36009;SDS011;22076;52.182;5.404;2022-10-22T03:38:02;9.73;;;4.47;;
36009;SDS011;22076;52.182;5.404;2022-10-22T03:40:29;10.68;;;4.15;;
36009;SDS011;22076;52.182;5.404;2022-10-22T03:42:57;11.15;;;4.53;;
36009;SDS011;22076;52.182;5.404;2022-10-22T03:45:24;14.18;;;6.13;;
36009;SDS011;22076;52.182;5.404;2022-10-22T03:47:50;11.93;;;6.07;;
36009;SDS011;22076;52.182;5.404;2022-10-22T03:50:17;14.35;;;7.15;;
36009;SDS011;22076;52.182;5.404;2022-10-22T03:52:44;16.58;;;5.93;;
36009;SDS011;22076;52.182;5.404;2022-10-22T03:55:10;10.57;;;5.90;;
36009;SDS011;22076;52.182;5.404;2022-10-22T03:57:37;8.05;;;4.75;;
36009;SDS011;22076;52.182;5.404;2022-10-22T04:00:06;23.83;;;7.57;;
36009;SDS011;22076;52.182;5.404;2022-10-22T04:02:33;14.95;;;5.85;;
36009;SDS011;22076;52.182;5.404;2022-10-22T04:05:03;17.70;;;6.15;;
36009;SDS011;22076;52.182;5.404;2022-10-22T04:07:30;9.48;;;5.40;;
36009;SDS011;22076;52.182;5.404;2022-10-22T04:09:56;11.23;;;5.30;;
36009;SDS011;22076;52.182;5.404;2022-10-22T04:12:23;13.05;;;5.50;;
36009;SDS011;22076;52.182;5.404;2022-10-22T04:14:50;12.70;;;6.68;;
36009;SDS011;22076;52.182;5.404;2022-10-22T04:17:18;16.95;;;6.03;;
36009;SDS011;22076;52.182;5.404;2022-10-22T04:19:44;13.48;;;5.72;;
36009;SDS011;22076;52.182;5.404;2022-10-22T04:22:11;16.25;;;6.32;;
36009;SDS011;22076;52.182;5.404;2022-10-22T04:24:38;9.23;;;4.32;;
36009;SDS011;22076;52.182;5.404;2022-10-22T04:27:07;20.17;;;7.25;;
36009;SDS011;22076;52.182;5.404;2022-10-22T04:29:34;6.72;;;4.65;;
36009;SDS011;22076;52.182;5.404;2022-10-22T04:32:01;9.48;;;4.90;;
36009;SDS011;22076;52.182;5.404;2022-10-22T04:34:29;9.38;;;5.22;;
36009;SDS011;22076;52.182;5.404;2022-10-22T04:36:56;18.42;;;7.28;;
36009;SDS011;22076;52.182;5.404;2022-10-22T04:39:23;11.82;;;5.80;;
36009;SDS011;22076;52.182;5.404;2022-10-22T04:41:49;13.95;;;6.60;;
36009;SDS011;22076;52.182;5.404;2022-10-22T04:44:16;9.60;;;4.40;;
36009;SDS011;22076;52.182;5.404;2022-10-22T04:46:43;17.15;;;6.88;;
36009;SDS011;22076;52.182;5.404;2022-10-22T04:49:09;16.75;;;7.55;;
36009;SDS011;22076;52.182;5.404;2022-10-22T04:51:37;15.30;;;7.10;;
36009;SDS011;22076;52.182;5.404;2022-10-22T04:54:06;12.98;;;7.60;;
36009;SDS011;22076;52.182;5.404;2022-10-22T04:56:32;12.68;;;4.90;;
36009;SDS011;22076;52.182;5.404;2022-10-22T04:59:03;12.45;;;5.15;;
36009;SDS011;22076;52.182;5.404;2022-10-22T05:01:31;16.15;;;7.15;;
36009;SDS011;22076;52.182;5.404;2022-10-22T05:03:59;13.15;;;5.85;;
36009;SDS011;22076;52.182;5.404;2022-10-22T05:06:27;10.00;;;5.75;;
36009;SDS011;22076;52.182;5.404;2022-10-22T05:08:57;15.07;;;5.53;;
36009;SDS011;22076;52.182;5.404;2022-10-22T05:11:25;11.27;;;6.25;;
36009;SDS011;22076;52.182;5.404;2022-10-22T05:13:57;14.32;;;6.35;;
36009;SDS011;22076;52.182;5.404;2022-10-22T05:16:25;15.25;;;6.20;;
36009;SDS011;22076;52.182;5.404;2022-10-22T05:18:52;8.93;;;4.55;;
36009;SDS011;22076;52.182;5.404;2022-10-22T05:21:19;9.10;;;3.58;;
36009;SDS011;22076;52.182;5.404;2022-10-22T05:23:47;21.23;;;7.28;;
36009;SDS011;22076;52.182;5.404;2022-10-22T05:26:17;13.82;;;5.70;;
36009;SDS011;22076;52.182;5.404;2022-10-22T05:28:45;8.80;;;4.95;;
36009;SDS011;22076;52.182;5.404;2022-10-22T05:31:12;11.00;;;5.30;;
36009;SDS011;22076;52.182;5.404;2022-10-22T05:33:39;11.05;;;5.32;;
36009;SDS011;22076;52.182;5.404;2022-10-22T05:36:07;11.65;;;4.60;;
36009;SDS011;22076;52.182;5.404;2022-10-22T05:38:34;15.90;;;3.97;;
36009;SDS011;22076;52.182;5.404;2022-10-22T05:41:02;17.58;;;6.60;;
36009;SDS011;22076;52.182;5.404;2022-10-22T05:43:31;9.90;;;5.38;;
36009;SDS011;22076;52.182;5.404;2022-10-22T05:46:00;13.57;;;5.70;;
36009;SDS011;22076;52.182;5.404;2022-10-22T05:48:29;9.52;;;5.05;;
36009;SDS011;22076;52.182;5.404;2022-10-22T05:50:55;12.40;;;5.10;;
36009;SDS011;22076;52.182;5.404;2022-10-22T05:53:22;11.70;;;6.18;;
36009;SDS011;22076;52.182;5.404;2022-10-22T05:55:48;12.40;;;5.78;;
36009;SDS011;22076;52.182;5.404;2022-10-22T05:58:15;16.50;;;5.95;;
36009;SDS011;22076;52.182;5.404;2022-10-22T06:00:43;18.98;;;6.03;;
36009;SDS011;22076;52.182;5.404;2022-10-22T06:03:10;14.88;;;5.45;;
36009;SDS011;22076;52.182;5.404;2022-10-22T06:05:36;13.35;;;4.63;;
36009;SDS011;22076;52.182;5.404;2022-10-22T06:08:03;16.35;;;6.45;;
36009;SDS011;22076;52.182;5.404;2022-10-22T06:10:30;15.15;;;5.38;;
36009;SDS011;22076;52.182;5.404;2022-10-22T06:12:56;16.95;;;5.65;;
36009;SDS011;22076;52.182;5.404;2022-10-22T06:15:25;10.88;;;4.22;;
36009;SDS011;22076;52.182;5.404;2022-10-22T06:17:53;12.35;;;5.15;;
36009;SDS011;22076;52.182;5.404;2022-10-22T06:20:28;11.77;;;4.40;;
36009;SDS011;22076;52.182;5.404;2022-10-22T06:22:55;14.80;;;6.00;;
36009;SDS011;22076;52.182;5.404;2022-10-22T06:25:22;10.10;;;4.78;;
36009;SDS011;22076;52.182;5.404;2022-10-22T06:27:48;8.95;;;4.20;;
36009;SDS011;22076;52.182;5.404;2022-10-22T06:30:16;10.27;;;4.25;;
36009;SDS011;22076;52.182;5.404;2022-10-22T06:32:43;9.18;;;4.43;;
36009;SDS011;22076;52.182;5.404;2022-10-22T06:35:11;8.13;;;4.15;;
36009;SDS011;22076;52.182;5.404;2022-10-22T06:37:38;14.10;;;5.60;;
36009;SDS011;22076;52.182;5.404;2022-10-22T06:40:05;13.15;;;5.45;;
36009;SDS011;22076;52.182;5.404;2022-10-22T06:42:32;13.15;;;4.55;;
36009;SDS011;22076;52.182;5.404;2022-10-22T06:44:59;8.57;;;4.53;;
36009;SDS011;22076;52.182;5.404;2022-10-22T06:47:25;9.70;;;4.60;;
36009;SDS011;22076;52.182;5.404;2022-10-22T06:49:52;16.73;;;5.78;;
36009;SDS011;22076;52.182;5.404;2022-10-22T06:52:20;16.77;;;4.93;;
36009;SDS011;22076;52.182;5.404;2022-10-22T06:54:47;19.60;;;6.40;;
36009;SDS011;22076;52.182;5.404;2022-10-22T06:57:13;11.05;;;4.80;;
36009;SDS011;22076;52.182;5.404;2022-10-22T06:59:40;14.57;;;4.85;;
36009;SDS011;22076;52.182;5.404;2022-10-22T07:02:07;8.85;;;4.35;;
36009;SDS011;22076;52.182;5.404;2022-10-22T07:04:34;19.83;;;6.85;;
36009;SDS011;22076;52.182;5.404;2022-10-22T07:07:01;29.30;;;13.38;;
36009;SDS011;22076;52.182;5.404;2022-10-22T07:09:31;28.10;;;12.98;;
36009;SDS011;22076;52.182;5.404;2022-10-22T07:11:58;41.50;;;18.27;;
36009;SDS011;22076;52.182;5.404;2022-10-22T07:14:25;31.88;;;15.50;;
36009;SDS011;22076;52.182;5.404;2022-10-22T07:16:51;30.52;;;12.45;;
36009;SDS011;22076;52.182;5.404;2022-10-22T07:19:18;35.90;;;15.77;;
36009;SDS011;22076;52.182;5.404;2022-10-22T07:21:45;22.27;;;10.05;;
36009;SDS011;22076;52.182;5.404;2022-10-22T07:24:11;27.23;;;10.77;;
36009;SDS011;22076;52.182;5.404;2022-10-22T07:26:39;29.10;;;12.85;;
36009;SDS011;22076;52.182;5.404;2022-10-22T07:29:06;18.30;;;7.63;;
36009;SDS011;22076;52.182;5.404;2022-10-22T07:31:34;27.20;;;11.40;;
36009;SDS011;22076;52.182;5.404;2022-10-22T07:34:01;27.00;;;12.48;;
36009;SDS011;22076;52.182;5.404;2022-10-22T07:36:27;44.90;;;20.35;;
36009;SDS011;22076;52.182;5.404;2022-10-22T07:38:57;52.53;;;22.77;;
36009;SDS011;22076;52.182;5.404;2022-10-22T07:41:25;34.17;;;15.68;;
36009;SDS011;22076;52.182;5.404;2022-10-22T07:43:53;26.25;;;12.73;;
36009;SDS011;22076;52.182;5.404;2022-10-22T07:46:20;31.42;;;15.07;;
36009;SDS011;22076;52.182;5.404;2022-10-22T07:48:47;29.67;;;14.70;;
36009;SDS011;22076;52.182;5.404;2022-10-22T07:51:17;40.75;;;18.25;;
36009;SDS011;22076;52.182;5.404;2022-10-22T07:53:44;27.33;;;11.95;;
36009;SDS011;22076;52.182;5.404;2022-10-22T07:56:10;20.30;;;9.38;;
36009;SDS011;22076;52.182;5.404;2022-10-22T07:58:40;16.98;;;9.95;;
36009;SDS011;22076;52.182;5.404;2022-10-22T08:01:08;18.42;;;10.20;;
36009;SDS011;22076;52.182;5.404;2022-10-22T08:03:34;19.02;;;7.40;;
36009;SDS011;22076;52.182;5.404;2022-10-22T08:06:01;21.55;;;7.63;;
36009;SDS011;22076;52.182;5.404;2022-10-22T08:08:28;15.52;;;7.72;;
36009;SDS011;22076;52.182;5.404;2022-10-22T08:10:55;24.48;;;6.25;;
36009;SDS011;22076;52.182;5.404;2022-10-22T08:13:24;22.48;;;6.68;;
36009;SDS011;22076;52.182;5.404;2022-10-22T08:15:51;11.52;;;5.38;;
36009;SDS011;22076;52.182;5.404;2022-10-22T08:18:19;12.52;;;4.70;;
36009;SDS011;22076;52.182;5.404;2022-10-22T08:20:46;16.17;;;5.07;;
36009;SDS011;22076;52.182;5.404;2022-10-22T08:23:12;16.90;;;4.82;;
36009;SDS011;22076;52.182;5.404;2022-10-22T08:25:39;17.40;;;4.78;;
36009;SDS011;22076;52.182;5.404;2022-10-22T08:28:06;19.95;;;5.28;;
36009;SDS011;22076;52.182;5.404;2022-10-22T08:30:32;14.65;;;4.70;;
36009;SDS011;22076;52.182;5.404;2022-10-22T08:33:02;14.93;;;4.80;;
36009;SDS011;22076;52.182;5.404;2022-10-22T08:35:30;12.80;;;4.03;;
36009;SDS011;22076;52.182;5.404;2022-10-22T08:37:56;17.83;;;4.95;;
36009;SDS011;22076;52.182;5.404;2022-10-22T08:40:24;10.57;;;4.25;;
36009;SDS011;22076;52.182;5.404;2022-10-22T08:43:05;19.58;;;4.18;;
36009;SDS011;22076;52.182;5.404;2022-10-22T08:45:39;14.20;;;4.53;;
36009;SDS011;22076;52.182;5.404;2022-10-22T08:48:13;17.42;;;4.80;;
36009;SDS011;22076;52.182;5.404;2022-10-22T08:50:49;12.20;;;4.43;;
36009;SDS011;22076;52.182;5.404;2022-10-22T08:53:18;10.68;;;4.00;;
36009;SDS011;22076;52.182;5.404;2022-10-22T08:55:46;14.88;;;4.30;;
36009;SDS011;22076;52.182;5.404;2022-10-22T08:58:17;15.05;;;4.03;;
36009;SDS011;22076;52.182;5.404;2022-10-22T09:00:51;12.80;;;4.43;;
36009;SDS011;22076;52.182;5.404;2022-10-22T09:03:30;10.23;;;3.38;;
36009;SDS011;22076;52.182;5.404;2022-10-22T09:06:04;18.92;;;3.85;;
36009;SDS011;22076;52.182;5.404;2022-10-22T09:11:02;15.75;;;3.85;;
36009;SDS011;22076;52.182;5.404;2022-10-22T09:13:32;17.95;;;4.60;;
36009;SDS011;22076;52.182;5.404;2022-10-22T09:16:00;10.77;;;3.45;;
36009;SDS011;22076;52.182;5.404;2022-10-22T09:18:32;9.48;;;3.85;;
36009;SDS011;22076;52.182;5.404;2022-10-22T09:21:05;14.18;;;4.32;;
36009;SDS011;22076;52.182;5.404;2022-10-22T09:23:41;15.32;;;4.03;;
36009;SDS011;22076;52.182;5.404;2022-10-22T09:26:16;10.32;;;3.28;;
36009;SDS011;22076;52.182;5.404;2022-10-22T09:28:42;15.30;;;3.58;;
36009;SDS011;22076;52.182;5.404;2022-10-22T09:31:09;17.88;;;4.75;;
36009;SDS011;22076;52.182;5.404;2022-10-22T09:33:37;14.95;;;4.95;;
36009;SDS011;22076;52.182;5.404;2022-10-22T09:36:05;21.75;;;4.75;;
36009;SDS011;22076;52.182;5.404;2022-10-22T09:38:33;12.85;;;4.32;;
36009;SDS011;22076;52.182;5.404;2022-10-22T09:41:04;15.07;;;3.95;;
36009;SDS011;22076;52.182;5.404;2022-10-22T09:43:31;15.15;;;3.00;;
36009;SDS011;22076;52.182;5.404;2022-10-22T09:46:01;12.77;;;3.83;;
36009;SDS011;22076;52.182;5.404;2022-10-22T09:48:29;8.95;;;3.88;;
36009;SDS011;22076;52.182;5.404;2022-10-22T09:51:01;13.98;;;3.45;;
36009;SDS011;22076;52.182;5.404;2022-10-22T09:53:34;12.13;;;3.40;;
36009;SDS011;22076;52.182;5.404;2022-10-22T09:56:05;15.23;;;3.53;;
36009;SDS011;22076;52.182;5.404;2022-10-22T09:58:40;19.02;;;3.90;;
36009;SDS011;22076;52.182;5.404;2022-10-22T10:01:14;13.00;;;3.67;;
36009;SDS011;22076;52.182;5.404;2022-10-22T10:03:42;6.60;;;3.03;;
36009;SDS011;22076;52.182;5.404;2022-10-22T10:06:15;9.57;;;2.97;;
36009;SDS011;22076;52.182;5.404;2022-10-22T10:08:43;10.98;;;2.90;;
36009;SDS011;22076;52.182;5.404;2022-10-22T10:11:10;9.18;;;3.53;;
36009;SDS011;22076;52.182;5.404;2022-10-22T10:13:48;7.13;;;2.60;;
36009;SDS011;22076;52.182;5.404;2022-10-22T10:16:26;11.05;;;2.63;;
36009;SDS011;22076;52.182;5.404;2022-10-22T10:19:13;9.50;;;2.55;;
36009;SDS011;22076;52.182;5.404;2022-10-22T10:21:51;9.05;;;3.67;;
36009;SDS011;22076;52.182;5.404;2022-10-22T10:24:27;7.47;;;2.42;;
36009;SDS011;22076;52.182;5.404;2022-10-22T10:27:00;18.15;;;4.55;;
36009;SDS011;22076;52.182;5.404;2022-10-22T10:29:35;9.80;;;2.67;;
36009;SDS011;22076;52.182;5.404;2022-10-22T10:32:11;12.57;;;3.25;;
36009;SDS011;22076;52.182;5.404;2022-10-22T10:34:47;15.23;;;3.60;;
36009;SDS011;22076;52.182;5.404;2022-10-22T10:37:20;9.20;;;2.53;;
36009;SDS011;22076;52.182;5.404;2022-10-22T10:39:54;10.32;;;2.80;;
36009;SDS011;22076;52.182;5.404;2022-10-22T10:42:31;8.05;;;2.22;;
36009;SDS011;22076;52.182;5.404;2022-10-22T10:45:04;12.50;;;3.00;;
36009;SDS011;22076;52.182;5.404;2022-10-22T10:47:44;11.80;;;2.10;;
36009;SDS011;22076;52.182;5.404;2022-10-22T10:50:19;14.57;;;3.17;;
36009;SDS011;22076;52.182;5.404;2022-10-22T10:52:53;8.18;;;2.15;;
36009;SDS011;22076;52.182;5.404;2022-10-22T10:55:27;9.65;;;2.63;;
36009;SDS011;22076;52.182;5.404;2022-10-22T10:57:57;8.80;;;2.92;;
36009;SDS011;22076;52.182;5.404;2022-10-22T11:00:38;7.47;;;2.45;;
36009;SDS011;22076;52.182;5.404;2022-10-22T11:06:13;11.75;;;2.70;;
36009;SDS011;22076;52.182;5.404;2022-10-22T11:08:43;11.38;;;3.22;;
36009;SDS011;22076;52.182;5.404;2022-10-22T11:11:15;6.63;;;2.22;;
36009;SDS011;22076;52.182;5.404;2022-10-22T11:13:44;9.15;;;3.22;;
36009;SDS011;22076;52.182;5.404;2022-10-22T11:16:16;9.65;;;2.90;;
36009;SDS011;22076;52.182;5.404;2022-10-22T11:18:46;8.20;;;2.47;;
36009;SDS011;22076;52.182;5.404;2022-10-22T11:21:16;8.20;;;2.40;;
36009;SDS011;22076;52.182;5.404;2022-10-22T11:23:49;6.75;;;2.47;;
36009;SDS011;22076;52.182;5.404;2022-10-22T11:26:24;7.25;;;2.60;;
36009;SDS011;22076;52.182;5.404;2022-10-22T11:28:54;8.95;;;2.42;;
36009;SDS011;22076;52.182;5.404;2022-10-22T11:31:24;6.75;;;2.03;;
36009;SDS011;22076;52.182;5.404;2022-10-22T11:33:51;8.30;;;2.45;;
36009;SDS011;22076;52.182;5.404;2022-10-22T11:36:20;13.18;;;2.20;;
36009;SDS011;22076;52.182;5.404;2022-10-22T11:38:49;11.88;;;2.25;;
36009;SDS011;22076;52.182;5.404;2022-10-22T11:41:16;7.72;;;2.22;;
36009;SDS011;22076;52.182;5.404;2022-10-22T11:43:51;12.27;;;2.47;;
36009;SDS011;22076;52.182;5.404;2022-10-22T11:46:27;11.50;;;2.50;;
36009;SDS011;22076;52.182;5.404;2022-10-22T11:49:00;6.55;;;1.73;;
36009;SDS011;22076;52.182;5.404;2022-10-22T11:51:29;10.68;;;2.20;;
36009;SDS011;22076;52.182;5.404;2022-10-22T11:54:00;7.90;;;2.08;;
36009;SDS011;22076;52.182;5.404;2022-10-22T11:56:31;13.07;;;2.42;;
36009;SDS011;22076;52.182;5.404;2022-10-22T11:59:02;12.15;;;1.98;;
36009;SDS011;22076;52.182;5.404;2022-10-22T12:01:38;9.95;;;1.73;;
36009;SDS011;22076;52.182;5.404;2022-10-22T12:04:17;8.63;;;2.08;;
36009;SDS011;22076;52.182;5.404;2022-10-22T12:06:54;11.75;;;2.28;;
36009;SDS011;22076;52.182;5.404;2022-10-22T12:09:26;14.75;;;2.50;;
36009;SDS011;22076;52.182;5.404;2022-10-22T12:12:00;9.38;;;1.92;;
36009;SDS011;22076;52.182;5.404;2022-10-22T12:14:31;10.90;;;2.30;;
36009;SDS011;22076;52.182;5.404;2022-10-22T12:17:02;12.98;;;2.65;;
36009;SDS011;22076;52.182;5.404;2022-10-22T12:19:34;12.80;;;2.63;;
36009;SDS011;22076;52.182;5.404;2022-10-22T12:22:07;11.43;;;2.10;;
36009;SDS011;22076;52.182;5.404;2022-10-22T12:24:41;12.65;;;2.75;;
36009;SDS011;22076;52.182;5.404;2022-10-22T12:27:17;14.50;;;2.22;;
36009;SDS011;22076;52.182;5.404;2022-10-22T12:29:44;16.70;;;2.63;;
36009;SDS011;22076;52.182;5.404;2022-10-22T12:32:12;12.35;;;2.53;;
36009;SDS011;22076;52.182;5.404;2022-10-22T12:34:44;6.40;;;1.73;;
36009;SDS011;22076;52.182;5.404;2022-10-22T12:37:11;13.95;;;2.38;;
36009;SDS011;22076;52.182;5.404;2022-10-22T12:39:40;13.48;;;2.83;;
36009;SDS011;22076;52.182;5.404;2022-10-22T12:42:09;16.38;;;2.30;;
36009;SDS011;22076;52.182;5.404;2022-10-22T12:44:38;10.85;;;2.25;;
36009;SDS011;22076;52.182;5.404;2022-10-22T12:47:05;9.20;;;2.30;;
36009;SDS011;22076;52.182;5.404;2022-10-22T12:49:33;10.88;;;2.53;;
36009;SDS011;22076;52.182;5.404;2022-10-22T12:52:02;10.70;;;2.40;;
36009;SDS011;22076;52.182;5.404;2022-10-22T12:54:31;6.47;;;1.95;;
36009;SDS011;22076;52.182;5.404;2022-10-22T12:57:00;7.63;;;1.80;;
36009;SDS011;22076;52.182;5.404;2022-10-22T12:59:26;16.33;;;2.80;;
36009;SDS011;22076;52.182;5.404;2022-10-22T13:01:57;16.02;;;3.15;;
36009;SDS011;22076;52.182;5.404;2022-10-22T13:04:31;13.25;;;2.20;;
36009;SDS011;22076;52.182;5.404;2022-10-22T13:07:03;14.50;;;2.42;;
36009;SDS011;22076;52.182;5.404;2022-10-22T13:09:36;10.48;;;2.15;;
36009;SDS011;22076;52.182;5.404;2022-10-22T13:12:06;10.57;;;2.75;;
36009;SDS011;22076;52.182;5.404;2022-10-22T13:14:38;15.63;;;3.00;;
36009;SDS011;22076;52.182;5.404;2022-10-22T13:17:10;18.05;;;2.45;;
36009;SDS011;22076;52.182;5.404;2022-10-22T13:22:27;6.05;;;2.03;;
36009;SDS011;22076;52.182;5.404;2022-10-22T13:24:56;13.95;;;2.45;;
36009;SDS011;22076;52.182;5.404;2022-10-22T13:27:26;11.00;;;2.22;;
36009;SDS011;22076;52.182;5.404;2022-10-22T13:29:53;11.20;;;2.70;;
36009;SDS011;22076;52.182;5.404;2022-10-22T13:32:27;10.63;;;2.58;;
36009;SDS011;22076;52.182;5.404;2022-10-22T13:34:56;11.07;;;2.70;;
36009;SDS011;22076;52.182;5.404;2022-10-22T13:37:25;8.82;;;2.28;;
36009;SDS011;22076;52.182;5.404;2022-10-22T13:39:54;13.07;;;2.67;;
36009;SDS011;22076;52.182;5.404;2022-10-22T13:42:20;11.35;;;2.67;;
36009;SDS011;22076;52.182;5.404;2022-10-22T13:44:48;11.18;;;2.72;;
36009;SDS011;22076;52.182;5.404;2022-10-22T13:47:20;9.85;;;2.65;;
36009;SDS011;22076;52.182;5.404;2022-10-22T13:50:01;12.45;;;2.75;;
36009;SDS011;22076;52.182;5.404;2022-10-22T13:52:32;10.35;;;3.30;;
36009;SDS011;22076;52.182;5.404;2022-10-22T13:55:00;10.93;;;2.47;;
36009;SDS011;22076;52.182;5.404;2022-10-22T13:57:27;9.43;;;2.08;;
36009;SDS011;22076;52.182;5.404;2022-10-22T13:59:55;11.45;;;2.35;;
36009;SDS011;22076;52.182;5.404;2022-10-22T14:02:21;9.95;;;2.55;;
36009;SDS011;22076;52.182;5.404;2022-10-22T14:04:49;9.55;;;2.10;;
36009;SDS011;22076;52.182;5.404;2022-10-22T14:07:16;15.63;;;3.05;;
36009;SDS011;22076;52.182;5.404;2022-10-22T14:09:43;14.48;;;2.97;;
36009;SDS011;22076;52.182;5.404;2022-10-22T14:12:10;8.45;;;2.50;;
36009;SDS011;22076;52.182;5.404;2022-10-22T14:14:38;13.55;;;3.15;;
36009;SDS011;22076;52.182;5.404;2022-10-22T14:17:07;13.90;;;2.53;;
36009;SDS011;22076;52.182;5.404;2022-10-22T14:19:36;16.00;;;3.65;;
36009;SDS011;22076;52.182;5.404;2022-10-22T14:22:02;10.98;;;3.20;;
36009;SDS011;22076;52.182;5.404;2022-10-22T14:24:29;17.50;;;3.67;;
36009;SDS011;22076;52.182;5.404;2022-10-22T14:26:55;8.80;;;2.83;;
36009;SDS011;22076;52.182;5.404;2022-10-22T14:29:22;9.80;;;3.20;;
36009;SDS011;22076;52.182;5.404;2022-10-22T14:31:48;11.18;;;3.30;;
36009;SDS011;22076;52.182;5.404;2022-10-22T14:34:17;9.93;;;2.75;;
36009;SDS011;22076;52.182;5.404;2022-10-22T14:36:44;18.20;;;3.30;;
36009;SDS011;22076;52.182;5.404;2022-10-22T14:39:18;14.85;;;3.38;;
36009;SDS011;22076;52.182;5.404;2022-10-22T14:41:45;10.93;;;2.70;;
36009;SDS011;22076;52.182;5.404;2022-10-22T14:44:12;10.77;;;2.70;;
36009;SDS011;22076;52.182;5.404;2022-10-22T14:46:39;10.38;;;3.15;;
36009;SDS011;22076;52.182;5.404;2022-10-22T14:49:08;10.68;;;2.83;;
36009;SDS011;22076;52.182;5.404;2022-10-22T14:51:37;8.35;;;2.75;;
36009;SDS011;22076;52.182;5.404;2022-10-22T14:54:04;10.68;;;3.10;;
36009;SDS011;22076;52.182;5.404;2022-10-22T14:56:31;9.50;;;2.70;;
36009;SDS011;22076;52.182;5.404;2022-10-22T14:58:57;12.23;;;2.90;;